Weather at La Tuque Airport

Public forecast

Using degrees Celsius for public forecast. Weather courtesy of forecast.io.

Closest aviation weather report (METAR) to La Tuque Airport

Report is more than 6 hours old.

Closest report is C J.H.L.(Joe) Lecomte) Heliport, 60.7 nm (112.3 km) ESE.

2024/07/12 20:00 (retrieved 1 day ago)

CYOY 122000Z 22007KT 140V250 8SM BKN020 BKN035 25/19 A3010 RMK CU5SC1 DENSITY ALT 1884FT LAST OBS /NEXT 151100 UTC SLP191

Closest aviation forecast (TAF) to La Tuque Airport

Forecast is more than 12 hours old.

Closest forecast is C J.H.L.(Joe) Lecomte) Heliport, 60.7 nm (112.3 km) ESE.

2024/07/12 18:06 Ammendment (retrieved 1 day ago)

TAF AMD TAF AMD CYOY 122003Z 1218/1306 CNL RMK END OF FLY PROGRAM NXT FCST BY 130000Z